sensor_id;sensor_type;location;lat;lon;timestamp;P1;durP1;ratioP1;P2;durP2;ratioP2
6203;SDS011;3135;42.602;23.468;2023-05-10T00:00:26;3.42;;;3.00;;
6203;SDS011;3135;42.602;23.468;2023-05-10T00:02:52;3.97;;;3.47;;
6203;SDS011;3135;42.602;23.468;2023-05-10T00:05:17;3.75;;;3.30;;
6203;SDS011;3135;42.602;23.468;2023-05-10T00:07:43;4.20;;;3.38;;
6203;SDS011;3135;42.602;23.468;2023-05-10T00:10:10;4.25;;;3.53;;
6203;SDS011;3135;42.602;23.468;2023-05-10T00:12:35;4.15;;;3.70;;
6203;SDS011;3135;42.602;23.468;2023-05-10T00:15:01;4.97;;;3.92;;
6203;SDS011;3135;42.602;23.468;2023-05-10T00:17:28;5.75;;;4.40;;
6203;SDS011;3135;42.602;23.468;2023-05-10T00:19:53;4.40;;;4.00;;
6203;SDS011;3135;42.602;23.468;2023-05-10T00:22:19;7.17;;;4.57;;
6203;SDS011;3135;42.602;23.468;2023-05-10T00:24:45;4.70;;;4.10;;
6203;SDS011;3135;42.602;23.468;2023-05-10T00:27:10;5.50;;;4.13;;
6203;SDS011;3135;42.602;23.468;2023-05-10T00:29:36;6.25;;;4.15;;
6203;SDS011;3135;42.602;23.468;2023-05-10T00:32:01;6.67;;;4.23;;
6203;SDS011;3135;42.602;23.468;2023-05-10T00:34:27;4.80;;;3.87;;
6203;SDS011;3135;42.602;23.468;2023-05-10T00:36:52;5.53;;;4.00;;
6203;SDS011;3135;42.602;23.468;2023-05-10T00:39:17;4.68;;;3.97;;
6203;SDS011;3135;42.602;23.468;2023-05-10T00:41:43;5.78;;;4.07;;
6203;SDS011;3135;42.602;23.468;2023-05-10T00:44:08;5.63;;;4.18;;
6203;SDS011;3135;42.602;23.468;2023-05-10T00:46:34;5.45;;;4.20;;
6203;SDS011;3135;42.602;23.468;2023-05-10T00:49:01;5.57;;;4.38;;
6203;SDS011;3135;42.602;23.468;2023-05-10T00:51:27;4.90;;;4.03;;
6203;SDS011;3135;42.602;23.468;2023-05-10T00:53:52;5.25;;;3.88;;
6203;SDS011;3135;42.602;23.468;2023-05-10T00:56:18;5.75;;;4.50;;
6203;SDS011;3135;42.602;23.468;2023-05-10T00:58:47;5.50;;;3.58;;
6203;SDS011;3135;42.602;23.468;2023-05-10T01:01:13;4.83;;;3.70;;
6203;SDS011;3135;42.602;23.468;2023-05-10T01:03:39;6.80;;;4.20;;
6203;SDS011;3135;42.602;23.468;2023-05-10T01:06:05;3.75;;;3.45;;
6203;SDS011;3135;42.602;23.468;2023-05-10T01:08:31;3.47;;;3.10;;
6203;SDS011;3135;42.602;23.468;2023-05-10T01:10:56;4.07;;;3.67;;
6203;SDS011;3135;42.602;23.468;2023-05-10T01:13:36;3.22;;;2.92;;
6203;SDS011;3135;42.602;23.468;2023-05-10T01:16:03;3.20;;;2.90;;
6203;SDS011;3135;42.602;23.468;2023-05-10T01:18:30;3.83;;;3.22;;
6203;SDS011;3135;42.602;23.468;2023-05-10T01:21:13;4.82;;;3.13;;
6203;SDS011;3135;42.602;23.468;2023-05-10T01:35:19;4.00;;;2.90;;
6203;SDS011;3135;42.602;23.468;2023-05-10T01:38:04;3.33;;;2.85;;
6203;SDS011;3135;42.602;23.468;2023-05-10T01:40:39;2.80;;;2.50;;
6203;SDS011;3135;42.602;23.468;2023-05-10T01:43:17;3.03;;;2.73;;
6203;SDS011;3135;42.602;23.468;2023-05-10T01:48:51;3.27;;;2.90;;
6203;SDS011;3135;42.602;23.468;2023-05-10T01:51:23;3.50;;;3.00;;
6203;SDS011;3135;42.602;23.468;2023-05-10T01:53:51;3.42;;;3.13;;
6203;SDS011;3135;42.602;23.468;2023-05-10T01:56:24;6.38;;;3.55;;
6203;SDS011;3135;42.602;23.468;2023-05-10T01:58:52;4.25;;;3.53;;
6203;SDS011;3135;42.602;23.468;2023-05-10T02:01:20;9.10;;;3.80;;
6203;SDS011;3135;42.602;23.468;2023-05-10T02:03:46;3.95;;;3.20;;
6203;SDS011;3135;42.602;23.468;2023-05-10T02:06:15;4.17;;;3.20;;
6203;SDS011;3135;42.602;23.468;2023-05-10T02:08:43;4.05;;;3.17;;
6203;SDS011;3135;42.602;23.468;2023-05-10T02:11:12;4.10;;;3.40;;
6203;SDS011;3135;42.602;23.468;2023-05-10T02:13:38;5.40;;;2.83;;
6203;SDS011;3135;42.602;23.468;2023-05-10T02:16:05;3.58;;;2.65;;
6203;SDS011;3135;42.602;23.468;2023-05-10T02:18:32;4.72;;;2.90;;
6203;SDS011;3135;42.602;23.468;2023-05-10T02:20:59;5.00;;;3.10;;
6203;SDS011;3135;42.602;23.468;2023-05-10T02:23:27;4.40;;;2.90;;
6203;SDS011;3135;42.602;23.468;2023-05-10T02:25:53;4.50;;;3.35;;
6203;SDS011;3135;42.602;23.468;2023-05-10T02:28:21;4.50;;;3.33;;
6203;SDS011;3135;42.602;23.468;2023-05-10T02:30:49;3.17;;;2.63;;
6203;SDS011;3135;42.602;23.468;2023-05-10T02:33:16;6.32;;;3.33;;
6203;SDS011;3135;42.602;23.468;2023-05-10T02:35:43;4.38;;;3.10;;
6203;SDS011;3135;42.602;23.468;2023-05-10T02:38:09;4.60;;;3.50;;
6203;SDS011;3135;42.602;23.468;2023-05-10T02:40:36;4.95;;;3.70;;
6203;SDS011;3135;42.602;23.468;2023-05-10T02:43:03;5.60;;;3.58;;
6203;SDS011;3135;42.602;23.468;2023-05-10T02:45:31;3.65;;;3.25;;
6203;SDS011;3135;42.602;23.468;2023-05-10T02:47:57;4.50;;;2.80;;
6203;SDS011;3135;42.602;23.468;2023-05-10T02:50:25;5.80;;;3.25;;
6203;SDS011;3135;42.602;23.468;2023-05-10T02:52:54;3.90;;;3.45;;
6203;SDS011;3135;42.602;23.468;2023-05-10T02:55:25;3.67;;;3.20;;
6203;SDS011;3135;42.602;23.468;2023-05-10T02:57:59;3.78;;;3.00;;
6203;SDS011;3135;42.602;23.468;2023-05-10T03:00:26;3.45;;;2.95;;
6203;SDS011;3135;42.602;23.468;2023-05-10T03:02:52;4.97;;;3.20;;
6203;SDS011;3135;42.602;23.468;2023-05-10T03:05:18;4.18;;;3.00;;
6203;SDS011;3135;42.602;23.468;2023-05-10T03:07:44;4.88;;;3.00;;
6203;SDS011;3135;42.602;23.468;2023-05-10T03:10:10;6.55;;;3.92;;
6203;SDS011;3135;42.602;23.468;2023-05-10T03:12:48;7.43;;;3.70;;
6203;SDS011;3135;42.602;23.468;2023-05-10T03:18:23;4.30;;;3.00;;
6203;SDS011;3135;42.602;23.468;2023-05-10T03:21:03;4.60;;;3.10;;
6203;SDS011;3135;42.602;23.468;2023-05-10T03:23:35;5.28;;;3.08;;
6203;SDS011;3135;42.602;23.468;2023-05-10T03:26:05;7.05;;;3.10;;
6203;SDS011;3135;42.602;23.468;2023-05-10T03:28:32;3.10;;;2.72;;
6203;SDS011;3135;42.602;23.468;2023-05-10T03:30:59;3.70;;;2.90;;
6203;SDS011;3135;42.602;23.468;2023-05-10T03:33:25;4.85;;;3.00;;
6203;SDS011;3135;42.602;23.468;2023-05-10T03:35:51;4.57;;;3.13;;
6203;SDS011;3135;42.602;23.468;2023-05-10T03:38:16;5.60;;;2.97;;
6203;SDS011;3135;42.602;23.468;2023-05-10T03:40:41;4.63;;;3.00;;
6203;SDS011;3135;42.602;23.468;2023-05-10T03:43:07;4.13;;;2.70;;
6203;SDS011;3135;42.602;23.468;2023-05-10T03:45:32;5.30;;;2.70;;
6203;SDS011;3135;42.602;23.468;2023-05-10T03:47:58;4.27;;;2.80;;
6203;SDS011;3135;42.602;23.468;2023-05-10T03:50:23;5.20;;;3.10;;
6203;SDS011;3135;42.602;23.468;2023-05-10T03:52:49;5.00;;;3.23;;
6203;SDS011;3135;42.602;23.468;2023-05-10T03:55:15;6.32;;;3.92;;
6203;SDS011;3135;42.602;23.468;2023-05-10T03:57:41;5.27;;;3.60;;
6203;SDS011;3135;42.602;23.468;2023-05-10T04:00:07;4.82;;;3.47;;
6203;SDS011;3135;42.602;23.468;2023-05-10T04:02:33;5.88;;;3.50;;
6203;SDS011;3135;42.602;23.468;2023-05-10T04:04:58;5.80;;;3.70;;
6203;SDS011;3135;42.602;23.468;2023-05-10T04:07:24;6.82;;;3.75;;
6203;SDS011;3135;42.602;23.468;2023-05-10T04:09:49;18.00;;;7.93;;
6203;SDS011;3135;42.602;23.468;2023-05-10T04:12:15;6.00;;;4.10;;
6203;SDS011;3135;42.602;23.468;2023-05-10T04:14:40;16.60;;;7.93;;
6203;SDS011;3135;42.602;23.468;2023-05-10T04:17:06;15.93;;;7.00;;
6203;SDS011;3135;42.602;23.468;2023-05-10T04:19:31;18.20;;;6.53;;
6203;SDS011;3135;42.602;23.468;2023-05-10T04:21:57;6.40;;;4.13;;
6203;SDS011;3135;42.602;23.468;2023-05-10T04:24:23;5.40;;;4.07;;
6203;SDS011;3135;42.602;23.468;2023-05-10T04:26:49;6.20;;;4.22;;
6203;SDS011;3135;42.602;23.468;2023-05-10T04:29:15;6.70;;;4.33;;
6203;SDS011;3135;42.602;23.468;2023-05-10T04:31:40;6.37;;;3.20;;
6203;SDS011;3135;42.602;23.468;2023-05-10T04:34:05;3.40;;;3.10;;
6203;SDS011;3135;42.602;23.468;2023-05-10T04:36:31;5.97;;;3.77;;
6203;SDS011;3135;42.602;23.468;2023-05-10T04:38:58;6.75;;;3.95;;
6203;SDS011;3135;42.602;23.468;2023-05-10T04:41:24;7.50;;;4.20;;
6203;SDS011;3135;42.602;23.468;2023-05-10T04:43:50;5.50;;;3.97;;
6203;SDS011;3135;42.602;23.468;2023-05-10T04:46:16;7.45;;;4.22;;
6203;SDS011;3135;42.602;23.468;2023-05-10T04:48:41;6.73;;;4.47;;
6203;SDS011;3135;42.602;23.468;2023-05-10T04:51:07;8.53;;;4.53;;
6203;SDS011;3135;42.602;23.468;2023-05-10T04:53:32;9.50;;;4.50;;
6203;SDS011;3135;42.602;23.468;2023-05-10T04:55:57;6.40;;;4.33;;
6203;SDS011;3135;42.602;23.468;2023-05-10T04:58:23;15.63;;;7.60;;
6203;SDS011;3135;42.602;23.468;2023-05-10T05:00:48;8.67;;;4.53;;
6203;SDS011;3135;42.602;23.468;2023-05-10T05:03:14;7.90;;;5.00;;
6203;SDS011;3135;42.602;23.468;2023-05-10T05:05:39;9.05;;;5.35;;
6203;SDS011;3135;42.602;23.468;2023-05-10T05:08:05;8.07;;;4.97;;
6203;SDS011;3135;42.602;23.468;2023-05-10T05:10:30;12.75;;;6.80;;
6203;SDS011;3135;42.602;23.468;2023-05-10T05:12:56;8.02;;;5.63;;
6203;SDS011;3135;42.602;23.468;2023-05-10T05:15:21;9.85;;;5.60;;
6203;SDS011;3135;42.602;23.468;2023-05-10T05:17:46;13.45;;;5.78;;
6203;SDS011;3135;42.602;23.468;2023-05-10T05:20:12;8.80;;;5.82;;
6203;SDS011;3135;42.602;23.468;2023-05-10T05:22:38;14.63;;;6.32;;
6203;SDS011;3135;42.602;23.468;2023-05-10T05:25:04;15.37;;;7.43;;
6203;SDS011;3135;42.602;23.468;2023-05-10T05:27:30;18.27;;;8.00;;
6203;SDS011;3135;42.602;23.468;2023-05-10T05:29:56;10.23;;;5.20;;
6203;SDS011;3135;42.602;23.468;2023-05-10T05:32:22;9.20;;;5.70;;
6203;SDS011;3135;42.602;23.468;2023-05-10T05:34:48;11.02;;;6.00;;
6203;SDS011;3135;42.602;23.468;2023-05-10T05:37:14;16.60;;;8.23;;
6203;SDS011;3135;42.602;23.468;2023-05-10T05:39:40;14.10;;;7.10;;
6203;SDS011;3135;42.602;23.468;2023-05-10T05:42:07;12.73;;;6.32;;
6203;SDS011;3135;42.602;23.468;2023-05-10T05:44:33;10.13;;;5.77;;
6203;SDS011;3135;42.602;23.468;2023-05-10T05:46:58;14.13;;;6.90;;
6203;SDS011;3135;42.602;23.468;2023-05-10T05:49:24;11.77;;;6.63;;
6203;SDS011;3135;42.602;23.468;2023-05-10T05:51:49;11.27;;;5.90;;
6203;SDS011;3135;42.602;23.468;2023-05-10T05:54:15;15.25;;;7.65;;
6203;SDS011;3135;42.602;23.468;2023-05-10T05:56:41;17.73;;;8.10;;
6203;SDS011;3135;42.602;23.468;2023-05-10T05:59:06;11.30;;;6.03;;
6203;SDS011;3135;42.602;23.468;2023-05-10T06:01:32;12.70;;;6.30;;
6203;SDS011;3135;42.602;23.468;2023-05-10T06:03:57;15.73;;;7.93;;
6203;SDS011;3135;42.602;23.468;2023-05-10T06:06:22;20.70;;;10.57;;
6203;SDS011;3135;42.602;23.468;2023-05-10T06:08:48;19.10;;;10.20;;
6203;SDS011;3135;42.602;23.468;2023-05-10T06:11:13;11.17;;;6.40;;
6203;SDS011;3135;42.602;23.468;2023-05-10T06:13:39;12.77;;;6.27;;
6203;SDS011;3135;42.602;23.468;2023-05-10T06:16:04;9.73;;;6.03;;
6203;SDS011;3135;42.602;23.468;2023-05-10T06:18:30;9.30;;;5.53;;
6203;SDS011;3135;42.602;23.468;2023-05-10T06:20:56;10.35;;;6.10;;
6203;SDS011;3135;42.602;23.468;2023-05-10T06:23:22;11.45;;;5.10;;
6203;SDS011;3135;42.602;23.468;2023-05-10T06:25:47;9.57;;;5.68;;
6203;SDS011;3135;42.602;23.468;2023-05-10T06:28:13;12.50;;;6.43;;
6203;SDS011;3135;42.602;23.468;2023-05-10T06:30:38;14.38;;;7.00;;
6203;SDS011;3135;42.602;23.468;2023-05-10T06:33:04;13.82;;;7.05;;
6203;SDS011;3135;42.602;23.468;2023-05-10T06:35:29;12.82;;;6.70;;
6203;SDS011;3135;42.602;23.468;2023-05-10T06:37:57;9.25;;;5.75;;
6203;SDS011;3135;42.602;23.468;2023-05-10T06:40:22;13.50;;;7.97;;
6203;SDS011;3135;42.602;23.468;2023-05-10T06:42:48;10.90;;;6.70;;
6203;SDS011;3135;42.602;23.468;2023-05-10T06:45:14;11.40;;;7.13;;
6203;SDS011;3135;42.602;23.468;2023-05-10T06:47:40;11.82;;;7.28;;
6203;SDS011;3135;42.602;23.468;2023-05-10T06:50:07;10.13;;;6.13;;
6203;SDS011;3135;42.602;23.468;2023-05-10T06:52:33;9.47;;;5.30;;
6203;SDS011;3135;42.602;23.468;2023-05-10T06:54:59;11.52;;;6.78;;
6203;SDS011;3135;42.602;23.468;2023-05-10T06:57:25;11.37;;;6.40;;
6203;SDS011;3135;42.602;23.468;2023-05-10T06:59:50;9.48;;;5.85;;
6203;SDS011;3135;42.602;23.468;2023-05-10T07:02:17;8.80;;;5.50;;
6203;SDS011;3135;42.602;23.468;2023-05-10T07:04:42;13.77;;;6.47;;
6203;SDS011;3135;42.602;23.468;2023-05-10T07:07:08;13.05;;;6.53;;
6203;SDS011;3135;42.602;23.468;2023-05-10T07:09:33;12.20;;;6.05;;
6203;SDS011;3135;42.602;23.468;2023-05-10T07:11:59;10.80;;;6.07;;
6203;SDS011;3135;42.602;23.468;2023-05-10T07:14:24;10.07;;;5.80;;
6203;SDS011;3135;42.602;23.468;2023-05-10T07:16:50;12.57;;;7.40;;
6203;SDS011;3135;42.602;23.468;2023-05-10T07:19:15;14.90;;;7.50;;
6203;SDS011;3135;42.602;23.468;2023-05-10T07:21:41;9.37;;;6.43;;
6203;SDS011;3135;42.602;23.468;2023-05-10T07:24:08;9.15;;;5.80;;
6203;SDS011;3135;42.602;23.468;2023-05-10T07:26:33;10.88;;;6.65;;
6203;SDS011;3135;42.602;23.468;2023-05-10T07:28:59;14.45;;;6.82;;
6203;SDS011;3135;42.602;23.468;2023-05-10T07:31:24;11.13;;;7.13;;
6203;SDS011;3135;42.602;23.468;2023-05-10T07:33:50;12.50;;;6.73;;
6203;SDS011;3135;42.602;23.468;2023-05-10T07:36:15;11.30;;;6.60;;
6203;SDS011;3135;42.602;23.468;2023-05-10T07:38:41;10.57;;;7.27;;
6203;SDS011;3135;42.602;23.468;2023-05-10T07:41:06;10.70;;;6.03;;
6203;SDS011;3135;42.602;23.468;2023-05-10T07:43:31;11.80;;;7.30;;
6203;SDS011;3135;42.602;23.468;2023-05-10T07:45:57;19.83;;;11.83;;
6203;SDS011;3135;42.602;23.468;2023-05-10T07:48:24;11.38;;;6.20;;
6203;SDS011;3135;42.602;23.468;2023-05-10T07:50:50;15.30;;;8.25;;
6203;SDS011;3135;42.602;23.468;2023-05-10T07:53:15;14.17;;;8.03;;
6203;SDS011;3135;42.602;23.468;2023-05-10T07:55:41;21.57;;;11.63;;
6203;SDS011;3135;42.602;23.468;2023-05-10T07:58:07;16.52;;;9.65;;
6203;SDS011;3135;42.602;23.468;2023-05-10T08:00:32;10.90;;;6.22;;
6203;SDS011;3135;42.602;23.468;2023-05-10T08:02:58;30.08;;;16.38;;
6203;SDS011;3135;42.602;23.468;2023-05-10T08:05:24;15.77;;;8.90;;
6203;SDS011;3135;42.602;23.468;2023-05-10T08:07:49;16.67;;;9.27;;
6203;SDS011;3135;42.602;23.468;2023-05-10T08:10:15;15.47;;;8.70;;
6203;SDS011;3135;42.602;23.468;2023-05-10T08:12:40;14.80;;;7.93;;
6203;SDS011;3135;42.602;23.468;2023-05-10T08:15:06;12.70;;;7.03;;
6203;SDS011;3135;42.602;23.468;2023-05-10T08:17:32;13.75;;;7.95;;
6203;SDS011;3135;42.602;23.468;2023-05-10T08:19:57;12.63;;;7.40;;
6203;SDS011;3135;42.602;23.468;2023-05-10T08:22:23;13.33;;;7.67;;
6203;SDS011;3135;42.602;23.468;2023-05-10T08:24:48;14.07;;;8.17;;
6203;SDS011;3135;42.602;23.468;2023-05-10T08:27:13;13.93;;;7.60;;
6203;SDS011;3135;42.602;23.468;2023-05-10T08:29:39;26.30;;;14.47;;
6203;SDS011;3135;42.602;23.468;2023-05-10T08:32:04;19.17;;;10.40;;
6203;SDS011;3135;42.602;23.468;2023-05-10T08:34:30;14.90;;;8.33;;
6203;SDS011;3135;42.602;23.468;2023-05-10T08:36:56;22.58;;;12.23;;
6203;SDS011;3135;42.602;23.468;2023-05-10T08:39:21;23.70;;;12.98;;
6203;SDS011;3135;42.602;23.468;2023-05-10T08:41:48;15.65;;;7.97;;
6203;SDS011;3135;42.602;23.468;2023-05-10T08:44:17;14.48;;;8.75;;
6203;SDS011;3135;42.602;23.468;2023-05-10T08:46:44;13.80;;;7.28;;
6203;SDS011;3135;42.602;23.468;2023-05-10T08:49:13;15.90;;;8.80;;
6203;SDS011;3135;42.602;23.468;2023-05-10T08:51:43;18.30;;;8.40;;
6203;SDS011;3135;42.602;23.468;2023-05-10T09:03:26;17.38;;;8.93;;
6203;SDS011;3135;42.602;23.468;2023-05-10T09:05:52;17.38;;;7.93;;
6203;SDS011;3135;42.602;23.468;2023-05-10T09:08:17;15.30;;;8.90;;
6203;SDS011;3135;42.602;23.468;2023-05-10T09:10:43;15.70;;;8.43;;
6203;SDS011;3135;42.602;23.468;2023-05-10T09:13:12;15.13;;;8.52;;
6203;SDS011;3135;42.602;23.468;2023-05-10T09:15:39;16.63;;;8.50;;
6203;SDS011;3135;42.602;23.468;2023-05-10T09:18:04;17.65;;;9.88;;
6203;SDS011;3135;42.602;23.468;2023-05-10T09:20:30;21.92;;;11.57;;
6203;SDS011;3135;42.602;23.468;2023-05-10T09:22:56;12.83;;;7.30;;
6203;SDS011;3135;42.602;23.468;2023-05-10T09:25:21;13.30;;;8.43;;
6203;SDS011;3135;42.602;23.468;2023-05-10T09:27:47;13.90;;;8.40;;
6203;SDS011;3135;42.602;23.468;2023-05-10T09:30:17;21.17;;;11.60;;
6203;SDS011;3135;42.602;23.468;2023-05-10T09:32:48;19.67;;;10.10;;
6203;SDS011;3135;42.602;23.468;2023-05-10T09:35:20;13.27;;;8.18;;
6203;SDS011;3135;42.602;23.468;2023-05-10T09:37:47;21.02;;;11.35;;
6203;SDS011;3135;42.602;23.468;2023-05-10T09:40:17;24.63;;;11.45;;
6203;SDS011;3135;42.602;23.468;2023-05-10T09:42:53;14.85;;;7.80;;
6203;SDS011;3135;42.602;23.468;2023-05-10T09:45:21;20.25;;;10.07;;
6203;SDS011;3135;42.602;23.468;2023-05-10T09:47:47;25.08;;;11.68;;
6203;SDS011;3135;42.602;23.468;2023-05-10T09:50:13;27.27;;;10.93;;
6203;SDS011;3135;42.602;23.468;2023-05-10T09:52:52;20.03;;;9.57;;
6203;SDS011;3135;42.602;23.468;2023-05-10T09:55:18;12.93;;;6.80;;
6203;SDS011;3135;42.602;23.468;2023-05-10T09:57:45;12.70;;;6.93;;
6203;SDS011;3135;42.602;23.468;2023-05-10T10:00:18;14.13;;;6.78;;
6203;SDS011;3135;42.602;23.468;2023-05-10T10:02:45;11.70;;;6.43;;
6203;SDS011;3135;42.602;23.468;2023-05-10T10:05:12;14.02;;;7.03;;
6203;SDS011;3135;42.602;23.468;2023-05-10T10:07:38;9.98;;;6.10;;
6203;SDS011;3135;42.602;23.468;2023-05-10T10:10:04;11.70;;;6.13;;
6203;SDS011;3135;42.602;23.468;2023-05-10T10:12:30;9.30;;;5.03;;
6203;SDS011;3135;42.602;23.468;2023-05-10T10:14:56;9.25;;;5.47;;
6203;SDS011;3135;42.602;23.468;2023-05-10T10:17:24;9.80;;;5.70;;
6203;SDS011;3135;42.602;23.468;2023-05-10T10:19:52;12.55;;;6.28;;
6203;SDS011;3135;42.602;23.468;2023-05-10T10:22:19;21.15;;;9.38;;
6203;SDS011;3135;42.602;23.468;2023-05-10T10:24:44;14.20;;;7.90;;
6203;SDS011;3135;42.602;23.468;2023-05-10T10:27:21;16.37;;;6.53;;
6203;SDS011;3135;42.602;23.468;2023-05-10T10:35:43;20.13;;;9.53;;
6203;SDS011;3135;42.602;23.468;2023-05-10T10:38:12;20.10;;;9.77;;
6203;SDS011;3135;42.602;23.468;2023-05-10T10:40:37;20.63;;;10.35;;
6203;SDS011;3135;42.602;23.468;2023-05-10T10:48:50;18.70;;;8.15;;
6203;SDS011;3135;42.602;23.468;2023-05-10T10:51:37;12.80;;;6.53;;
6203;SDS011;3135;42.602;23.468;2023-05-10T10:54:09;10.07;;;6.05;;
6203;SDS011;3135;42.602;23.468;2023-05-10T10:56:35;19.77;;;10.30;;
6203;SDS011;3135;42.602;23.468;2023-05-10T10:59:01;11.68;;;6.38;;
6203;SDS011;3135;42.602;23.468;2023-05-10T11:01:26;10.93;;;5.80;;
6203;SDS011;3135;42.602;23.468;2023-05-10T11:06:30;14.50;;;7.37;;
6203;SDS011;3135;42.602;23.468;2023-05-10T11:08:57;11.02;;;6.25;;
6203;SDS011;3135;42.602;23.468;2023-05-10T11:11:23;11.77;;;6.73;;
6203;SDS011;3135;42.602;23.468;2023-05-10T11:13:49;25.33;;;13.73;;
6203;SDS011;3135;42.602;23.468;2023-05-10T11:16:18;22.10;;;11.93;;
6203;SDS011;3135;42.602;23.468;2023-05-10T11:18:52;17.08;;;9.43;;
6203;SDS011;3135;42.602;23.468;2023-05-10T11:21:18;10.90;;;6.13;;
6203;SDS011;3135;42.602;23.468;2023-05-10T11:23:47;11.82;;;8.63;;
6203;SDS011;3135;42.602;23.468;2023-05-10T11:26:15;8.00;;;5.00;;
6203;SDS011;3135;42.602;23.468;2023-05-10T11:28:41;10.10;;;6.93;;
6203;SDS011;3135;42.602;23.468;2023-05-10T11:31:10;10.05;;;6.85;;
6203;SDS011;3135;42.602;23.468;2023-05-10T11:33:44;9.82;;;6.30;;
6203;SDS011;3135;42.602;23.468;2023-05-10T11:36:14;7.78;;;5.07;;
6203;SDS011;3135;42.602;23.468;2023-05-10T11:38:41;7.43;;;4.70;;
6203;SDS011;3135;42.602;23.468;2023-05-10T11:41:08;10.45;;;4.78;;
6203;SDS011;3135;42.602;23.468;2023-05-10T11:43:35;23.60;;;10.65;;
6203;SDS011;3135;42.602;23.468;2023-05-10T11:46:03;9.40;;;4.80;;
6203;SDS011;3135;42.602;23.468;2023-05-10T11:48:30;14.35;;;8.15;;
6203;SDS011;3135;42.602;23.468;2023-05-10T11:50:55;7.63;;;4.97;;
6203;SDS011;3135;42.602;23.468;2023-05-10T11:53:22;9.90;;;5.38;;
6203;SDS011;3135;42.602;23.468;2023-05-10T11:55:48;8.60;;;5.18;;
6203;SDS011;3135;42.602;23.468;2023-05-10T11:58:13;6.22;;;4.47;;
6203;SDS011;3135;42.602;23.468;2023-05-10T12:00:39;8.73;;;5.05;;
6203;SDS011;3135;42.602;23.468;2023-05-10T12:03:05;6.07;;;4.40;;
6203;SDS011;3135;42.602;23.468;2023-05-10T12:05:33;9.25;;;5.43;;
6203;SDS011;3135;42.602;23.468;2023-05-10T12:08:19;11.83;;;6.20;;
6203;SDS011;3135;42.602;23.468;2023-05-10T12:10:49;8.88;;;4.85;;
6203;SDS011;3135;42.602;23.468;2023-05-10T12:13:14;6.43;;;4.23;;
6203;SDS011;3135;42.602;23.468;2023-05-10T12:15:40;15.93;;;7.90;;
6203;SDS011;3135;42.602;23.468;2023-05-10T12:18:11;11.60;;;5.50;;
6203;SDS011;3135;42.602;23.468;2023-05-10T12:20:37;5.93;;;4.28;;
6203;SDS011;3135;42.602;23.468;2023-05-10T12:23:03;8.67;;;4.30;;
6203;SDS011;3135;42.602;23.468;2023-05-10T12:25:31;6.20;;;4.33;;
6203;SDS011;3135;42.602;23.468;2023-05-10T12:28:03;7.28;;;4.18;;
6203;SDS011;3135;42.602;23.468;2023-05-10T12:30:31;8.30;;;4.40;;
6203;SDS011;3135;42.602;23.468;2023-05-10T12:33:01;6.82;;;5.15;;
6203;SDS011;3135;42.602;23.468;2023-05-10T12:35:32;14.32;;;7.55;;
6203;SDS011;3135;42.602;23.468;2023-05-10T12:37:59;6.47;;;5.10;;
6203;SDS011;3135;42.602;23.468;2023-05-10T12:40:24;6.35;;;5.00;;
6203;SDS011;3135;42.602;23.468;2023-05-10T12:42:50;6.75;;;4.85;;
6203;SDS011;3135;42.602;23.468;2023-05-10T12:45:17;11.88;;;5.10;;
6203;SDS011;3135;42.602;23.468;2023-05-10T12:47:43;6.00;;;4.22;;
6203;SDS011;3135;42.602;23.468;2023-05-10T12:50:08;8.65;;;4.60;;
6203;SDS011;3135;42.602;23.468;2023-05-10T12:52:34;9.27;;;4.90;;
6203;SDS011;3135;42.602;23.468;2023-05-10T12:55:00;20.03;;;8.70;;
6203;SDS011;3135;42.602;23.468;2023-05-10T12:57:25;12.37;;;6.60;;
6203;SDS011;3135;42.602;23.468;2023-05-10T12:59:52;19.77;;;9.30;;
6203;SDS011;3135;42.602;23.468;2023-05-10T13:02:17;15.20;;;7.03;;
6203;SDS011;3135;42.602;23.468;2023-05-10T13:04:43;9.77;;;6.13;;
6203;SDS011;3135;42.602;23.468;2023-05-10T13:07:09;14.32;;;6.60;;
6203;SDS011;3135;42.602;23.468;2023-05-10T13:09:35;12.57;;;5.97;;
6203;SDS011;3135;42.602;23.468;2023-05-10T13:12:01;16.60;;;8.02;;
6203;SDS011;3135;42.602;23.468;2023-05-10T13:14:27;20.13;;;8.82;;
6203;SDS011;3135;42.602;23.468;2023-05-10T13:16:52;10.20;;;5.77;;
6203;SDS011;3135;42.602;23.468;2023-05-10T13:19:18;9.20;;;5.53;;
6203;SDS011;3135;42.602;23.468;2023-05-10T13:21:44;11.23;;;5.35;;
6203;SDS011;3135;42.602;23.468;2023-05-10T13:24:10;7.10;;;5.10;;
6203;SDS011;3135;42.602;23.468;2023-05-10T13:26:38;16.40;;;7.70;;
6203;SDS011;3135;42.602;23.468;2023-05-10T13:29:05;9.60;;;5.20;;
6203;SDS011;3135;42.602;23.468;2023-05-10T13:31:30;8.97;;;5.83;;
6203;SDS011;3135;42.602;23.468;2023-05-10T13:33:56;10.40;;;5.47;;
6203;SDS011;3135;42.602;23.468;2023-05-10T13:36:21;10.93;;;6.63;;
6203;SDS011;3135;42.602;23.468;2023-05-10T13:38:47;10.02;;;6.68;;
6203;SDS011;3135;42.602;23.468;2023-05-10T13:41:13;10.65;;;5.68;;
6203;SDS011;3135;42.602;23.468;2023-05-10T13:43:39;7.50;;;4.53;;
6203;SDS011;3135;42.602;23.468;2023-05-10T13:46:04;8.63;;;4.70;;
6203;SDS011;3135;42.602;23.468;2023-05-10T13:48:30;7.00;;;4.57;;
6203;SDS011;3135;42.602;23.468;2023-05-10T13:50:55;10.50;;;6.67;;
6203;SDS011;3135;42.602;23.468;2023-05-10T13:53:21;7.93;;;4.95;;
6203;SDS011;3135;42.602;23.468;2023-05-10T13:55:46;8.73;;;5.77;;
6203;SDS011;3135;42.602;23.468;2023-05-10T13:58:12;10.20;;;6.37;;
6203;SDS011;3135;42.602;23.468;2023-05-10T14:00:37;21.40;;;12.53;;
6203;SDS011;3135;42.602;23.468;2023-05-10T14:03:03;9.63;;;5.77;;
6203;SDS011;3135;42.602;23.468;2023-05-10T14:05:29;9.73;;;7.43;;
6203;SDS011;3135;42.602;23.468;2023-05-10T14:07:55;7.87;;;5.60;;
6203;SDS011;3135;42.602;23.468;2023-05-10T14:10:21;9.73;;;5.27;;
6203;SDS011;3135;42.602;23.468;2023-05-10T14:12:46;9.53;;;5.73;;
6203;SDS011;3135;42.602;23.468;2023-05-10T14:15:11;10.37;;;6.20;;
6203;SDS011;3135;42.602;23.468;2023-05-10T14:17:37;16.80;;;7.47;;
6203;SDS011;3135;42.602;23.468;2023-05-10T14:20:02;11.67;;;5.70;;
6203;SDS011;3135;42.602;23.468;2023-05-10T14:22:28;13.43;;;6.78;;
6203;SDS011;3135;42.602;23.468;2023-05-10T14:24:54;13.63;;;6.55;;
6203;SDS011;3135;42.602;23.468;2023-05-10T14:27:20;11.47;;;7.07;;
6203;SDS011;3135;42.602;23.468;2023-05-10T14:29:45;17.97;;;7.03;;
6203;SDS011;3135;42.602;23.468;2023-05-10T14:32:11;7.90;;;5.13;;
6203;SDS011;3135;42.602;23.468;2023-05-10T14:34:37;7.70;;;5.50;;
6203;SDS011;3135;42.602;23.468;2023-05-10T14:37:02;9.93;;;5.60;;
6203;SDS011;3135;42.602;23.468;2023-05-10T14:39:28;8.20;;;5.40;;
6203;SDS011;3135;42.602;23.468;2023-05-10T14:41:56;9.75;;;5.82;;
6203;SDS011;3135;42.602;23.468;2023-05-10T14:44:21;16.00;;;6.60;;
6203;SDS011;3135;42.602;23.468;2023-05-10T14:46:47;11.90;;;6.78;;
6203;SDS011;3135;42.602;23.468;2023-05-10T14:49:14;9.50;;;5.55;;
6203;SDS011;3135;42.602;23.468;2023-05-10T14:51:40;10.47;;;6.23;;
6203;SDS011;3135;42.602;23.468;2023-05-10T14:54:05;7.57;;;5.53;;
6203;SDS011;3135;42.602;23.468;2023-05-10T14:56:31;8.43;;;5.67;;
6203;SDS011;3135;42.602;23.468;2023-05-10T14:58:56;9.02;;;5.95;;
6203;SDS011;3135;42.602;23.468;2023-05-10T15:01:22;10.53;;;6.40;;
6203;SDS011;3135;42.602;23.468;2023-05-10T15:03:47;7.17;;;4.73;;
6203;SDS011;3135;42.602;23.468;2023-05-10T15:06:13;11.00;;;6.10;;
6203;SDS011;3135;42.602;23.468;2023-05-10T15:08:40;10.48;;;5.53;;
6203;SDS011;3135;42.602;23.468;2023-05-10T15:11:06;16.90;;;8.13;;
6203;SDS011;3135;42.602;23.468;2023-05-10T15:13:31;14.43;;;7.67;;
6203;SDS011;3135;42.602;23.468;2023-05-10T15:15:57;15.33;;;7.33;;
6203;SDS011;3135;42.602;23.468;2023-05-10T15:18:22;11.10;;;6.53;;
6203;SDS011;3135;42.602;23.468;2023-05-10T15:20:47;11.20;;;5.88;;
6203;SDS011;3135;42.602;23.468;2023-05-10T15:23:13;8.60;;;5.47;;
6203;SDS011;3135;42.602;23.468;2023-05-10T15:25:38;14.23;;;6.80;;
6203;SDS011;3135;42.602;23.468;2023-05-10T15:28:04;8.95;;;5.82;;
6203;SDS011;3135;42.602;23.468;2023-05-10T15:30:30;12.07;;;5.72;;